createdAt,value
2019-03-29T00:16:38.345Z,0.00
2019-03-29T00:17:38.284Z,0.00
2019-03-29T00:18:38.276Z,0.00
2019-03-29T00:19:38.262Z,0.00
2019-03-29T00:20:38.253Z,0.00
2019-03-29T00:21:39.117Z,0.00
2019-03-29T00:22:38.282Z,0.00
2019-03-29T00:23:38.223Z,0.00
2019-03-29T00:24:38.212Z,0.00
2019-03-29T00:25:38.198Z,0.00
2019-03-29T00:26:38.192Z,0.00
2019-03-29T00:27:38.177Z,0.00
2019-03-29T00:28:38.269Z,0.00
2019-03-29T00:29:38.169Z,0.00
2019-03-29T00:30:38.148Z,0.00
2019-03-29T00:31:38.139Z,0.00
2019-03-29T00:32:38.125Z,0.00
2019-03-29T00:33:38.113Z,0.00
2019-03-29T00:34:38.152Z,0.00
2019-03-29T00:35:38.097Z,0.00
2019-03-29T00:36:38.084Z,0.00
2019-03-29T00:37:38.077Z,0.00
2019-03-29T00:39:38.047Z,0.00
2019-03-29T00:40:38.138Z,0.00
2019-03-29T00:41:38.029Z,0.00
2019-03-29T00:42:38.028Z,0.00
2019-03-29T00:43:38.019Z,0.00
2019-03-29T00:44:38.010Z,0.00
2019-03-29T00:45:37.983Z,0.00
2019-03-29T00:46:38.109Z,0.00
2019-03-29T00:47:37.962Z,0.00
2019-03-29T00:48:37.951Z,0.00
2019-03-29T00:49:37.945Z,0.00
2019-03-29T00:50:37.940Z,0.00
2019-03-29T00:51:37.922Z,0.00
2019-03-29T00:52:38.010Z,0.00
2019-03-29T00:53:37.897Z,0.00
2019-03-29T00:54:37.887Z,0.00
2019-03-29T00:55:37.877Z,0.00
2019-03-29T00:56:38.968Z,0.00
2019-03-29T00:57:37.854Z,0.00
2019-03-29T00:58:37.896Z,0.00
2019-03-29T00:59:37.831Z,0.00
2019-03-29T01:00:37.824Z,0.00
2019-03-29T01:01:37.815Z,0.00
2019-03-29T01:02:37.803Z,0.00
2019-03-29T01:06:39.125Z,4.00
2019-03-29T01:07:37.746Z,4.00
2019-03-29T01:08:38.121Z,8.00
2019-03-29T01:09:37.730Z,4.00
2019-03-29T01:10:37.763Z,8.00
2019-03-29T01:11:37.709Z,12.00
2019-03-29T01:12:37.699Z,8.00
2019-03-29T01:13:37.681Z,12.00
2019-03-29T01:14:37.672Z,16.00
2019-03-29T01:15:37.663Z,12.00
2019-03-29T01:16:37.699Z,16.00
2019-03-29T01:17:37.641Z,20.00
2019-03-29T01:18:38.085Z,20.00
2019-03-29T01:19:37.622Z,24.00
2019-03-29T01:20:37.614Z,28.00
2019-03-29T01:21:37.752Z,28.00
2019-03-29T01:22:37.589Z,28.00
2019-03-29T01:23:37.584Z,32.00
2019-03-29T01:24:37.572Z,36.00
2019-03-29T01:25:37.558Z,40.00
2019-03-29T01:26:37.542Z,48.00
2019-03-29T01:27:37.588Z,52.00
2019-03-29T01:28:38.557Z,56.00
2019-03-29T01:29:37.513Z,64.00
2019-03-29T01:30:37.509Z,72.00
2019-03-29T01:31:37.496Z,76.00
2019-03-29T01:32:37.488Z,80.00
2019-03-29T01:33:37.525Z,96.00
2019-03-29T01:34:37.464Z,108.00
2019-03-29T01:35:37.454Z,120.00
2019-03-29T01:36:37.440Z,128.00
2019-03-29T01:37:37.428Z,140.00
2019-03-29T01:38:37.448Z,148.00
2019-03-29T01:39:37.562Z,156.00
2019-03-29T01:40:37.399Z,160.00
2019-03-29T01:41:37.384Z,168.00
2019-03-29T01:42:37.378Z,176.00
2019-03-29T01:43:37.369Z,184.00
2019-03-29T01:44:37.357Z,192.00
2019-03-29T01:45:37.453Z,196.00
2019-03-29T01:46:38.085Z,200.00
2019-03-29T01:47:37.324Z,212.00
2019-03-29T01:48:37.315Z,216.00
2019-03-29T01:49:37.305Z,232.00
2019-03-29T01:50:37.294Z,244.00
2019-03-29T01:51:37.328Z,252.00
2019-03-29T01:52:37.270Z,268.00
2019-03-29T01:53:37.983Z,276.00
2019-03-29T01:54:37.247Z,268.00
2019-03-29T01:55:37.253Z,268.00
2019-03-29T01:56:37.232Z,264.00
2019-03-29T01:57:37.364Z,268.00
2019-03-29T01:58:37.206Z,276.00
2019-03-29T01:59:37.191Z,296.00
2019-03-29T02:00:37.187Z,296.00
2019-03-29T02:01:37.180Z,292.00
2019-03-29T02:02:37.162Z,308.00
2019-03-29T02:03:37.203Z,332.00
2019-03-29T02:04:37.143Z,344.00
2019-03-29T02:05:37.131Z,348.00
2019-03-29T02:06:37.122Z,360.00
2019-03-29T02:07:38.083Z,380.00
2019-03-29T02:08:37.883Z,404.00
2019-03-29T02:09:37.189Z,416.00
2019-03-29T02:10:37.084Z,444.00
2019-03-29T02:11:37.065Z,492.00
2019-03-29T02:12:37.063Z,568.00
2019-03-29T02:13:37.059Z,636.00
2019-03-29T02:14:37.036Z,692.00
2019-03-29T02:15:37.920Z,716.00
2019-03-29T02:16:37.013Z,732.00
2019-03-29T02:17:37.005Z,796.00
2019-03-29T02:18:36.991Z,960.00
2019-03-29T02:19:36.981Z,1296.00
2019-03-29T02:20:36.974Z,1960.00
2019-03-29T02:21:37.015Z,2324.00
2019-03-29T02:22:37.102Z,2812.00
2019-03-29T02:23:36.939Z,3252.00
2019-03-29T02:24:36.928Z,3612.00
2019-03-29T02:25:36.916Z,3812.00
2019-03-29T02:26:36.906Z,3620.00
2019-03-29T02:27:36.952Z,3588.00
2019-03-29T02:28:36.883Z,3820.00
2019-03-29T02:29:37.187Z,4128.00
2019-03-29T02:30:36.866Z,4596.00
2019-03-29T02:31:36.862Z,7764.00
2019-03-29T02:32:36.850Z,25536.00
2019-03-29T02:33:36.983Z,22176.00
2019-03-29T02:34:36.823Z,7444.00
2019-03-29T02:35:38.438Z,6624.00
2019-03-29T02:36:36.799Z,7564.00
2019-03-29T02:37:36.792Z,8504.00
2019-03-29T02:38:54.231Z,6016.00
2019-03-29T02:40:01.639Z,5188.00
2019-03-29T02:41:01.622Z,5408.00
2019-03-29T02:42:01.607Z,8880.00
2019-03-29T02:43:01.600Z,25760.00
2019-03-29T02:44:01.593Z,11812.00
2019-03-29T02:45:03.400Z,7652.00
2019-03-29T02:46:01.573Z,6616.00
2019-03-29T02:47:01.563Z,6120.00
2019-03-29T02:48:01.547Z,6140.00
2019-03-29T02:49:01.537Z,23264.00
2019-03-29T02:50:01.525Z,20992.00
2019-03-29T02:51:01.963Z,9596.00
2019-03-29T02:52:01.506Z,23200.00
2019-03-29T02:53:01.500Z,15964.00
2019-03-29T02:54:01.478Z,29920.00
2019-03-29T02:55:01.481Z,27040.00
2019-03-29T02:56:01.460Z,27328.00
2019-03-29T02:57:01.502Z,30752.00
2019-03-29T02:58:01.438Z,29920.00
2019-03-29T02:59:01.427Z,29632.00
2019-03-29T03:00:01.419Z,30080.00
2019-03-29T03:01:01.403Z,28928.00
2019-03-29T03:02:01.398Z,32128.00
2019-03-29T03:03:01.490Z,31616.00
2019-03-29T03:04:01.379Z,30496.00
2019-03-29T03:05:01.372Z,28832.00
2019-03-29T03:06:01.356Z,27744.00
2019-03-29T03:07:01.339Z,29696.00
2019-03-29T03:08:01.329Z,29920.00
2019-03-29T03:09:13.358Z,11320.00
2019-03-29T03:10:02.403Z,25664.00
2019-03-29T03:11:01.296Z,28704.00
2019-03-29T03:12:01.286Z,31456.00
2019-03-29T03:13:01.275Z,30720.00
2019-03-29T03:14:01.260Z,28736.00
2019-03-29T03:15:01.305Z,29312.00
2019-03-29T03:16:01.244Z,30848.00
2019-03-29T03:17:01.240Z,30688.00
2019-03-29T03:18:01.221Z,9928.00
2019-03-29T03:19:01.230Z,20704.00
2019-03-29T03:20:01.201Z,29440.00
2019-03-29T03:21:01.248Z,29472.00
2019-03-29T03:22:01.181Z,24288.00
2019-03-29T03:23:01.175Z,23584.00
2019-03-29T03:24:01.164Z,24896.00
2019-03-29T03:25:01.164Z,28768.00
2019-03-29T03:26:01.135Z,24864.00
2019-03-29T03:27:01.284Z,18576.00
2019-03-29T03:28:01.147Z,16160.00
2019-03-29T03:29:01.104Z,13924.00
2019-03-29T03:30:01.137Z,14516.00
2019-03-29T03:31:01.104Z,14120.00
2019-03-29T03:32:01.079Z,14036.00
2019-03-29T03:33:01.113Z,14240.00
2019-03-29T03:34:01.069Z,13608.00
2019-03-29T03:35:01.100Z,10948.00
2019-03-29T03:36:01.040Z,10112.00
2019-03-29T03:37:01.017Z,10072.00
2019-03-29T03:38:01.027Z,10064.00
2019-03-29T03:39:01.105Z,9880.00
2019-03-29T03:40:00.991Z,9660.00
2019-03-29T03:41:00.976Z,9252.00
2019-03-29T03:42:00.965Z,8872.00
2019-03-29T03:43:00.953Z,8516.00
2019-03-29T03:44:00.950Z,8008.00
2019-03-29T03:45:01.086Z,7432.00
2019-03-29T03:46:00.928Z,6912.00
2019-03-29T03:47:00.915Z,6440.00
2019-03-29T03:48:00.904Z,6012.00
2019-03-29T03:49:00.991Z,5628.00
2019-03-29T03:50:01.657Z,5340.00
2019-03-29T03:51:00.927Z,5096.00
2019-03-29T03:52:00.861Z,4860.00
2019-03-29T03:53:00.851Z,4700.00
2019-03-29T03:54:00.842Z,4652.00
2019-03-29T03:55:00.835Z,4648.00
2019-03-29T03:56:00.820Z,4688.00
2019-03-29T03:57:00.861Z,4720.00
2019-03-29T03:58:00.801Z,4664.00
2019-03-29T03:59:00.790Z,4532.00
2019-03-29T04:00:00.785Z,4344.00
2019-03-29T04:01:00.776Z,4112.00
2019-03-29T04:02:00.759Z,3908.00
2019-03-29T04:03:00.901Z,3748.00
2019-03-29T04:04:00.744Z,3628.00
2019-03-29T04:05:00.784Z,3468.00
2019-03-29T04:06:00.716Z,3280.00
2019-03-29T04:07:00.704Z,3148.00
2019-03-29T04:08:00.696Z,3108.00
2019-03-29T04:09:00.734Z,3104.00
2019-03-29T04:10:00.680Z,3124.00
2019-03-29T04:11:00.661Z,3196.00
2019-03-29T04:12:00.655Z,3288.00
2019-03-29T04:13:00.640Z,3316.00
2019-03-29T04:14:00.632Z,3276.00
2019-03-29T04:15:00.722Z,3208.00
2019-03-29T04:16:00.610Z,3076.00
2019-03-29T04:17:00.600Z,2888.00
2019-03-29T04:18:00.593Z,2716.00
2019-03-29T04:19:00.580Z,2572.00
2019-03-29T04:20:00.715Z,2460.00
2019-03-29T04:21:01.761Z,2392.00
2019-03-29T04:22:00.624Z,2432.00
2019-03-29T04:23:00.541Z,2604.00
2019-03-29T04:24:00.527Z,2924.00
2019-03-29T04:25:00.528Z,3412.00
2019-03-29T04:26:00.507Z,4004.00
2019-03-29T04:27:00.548Z,4568.00
2019-03-29T04:28:00.480Z,5060.00
2019-03-29T04:29:04.536Z,5500.00
2019-03-29T04:30:00.854Z,5868.00
2019-03-29T04:31:00.462Z,6164.00
2019-03-29T04:32:00.437Z,6308.00
2019-03-29T04:33:00.477Z,6356.00
2019-03-29T04:34:00.418Z,6348.00
2019-03-29T04:35:00.493Z,6312.00
2019-03-29T04:36:00.403Z,6196.00
2019-03-29T04:37:00.388Z,6052.00
2019-03-29T04:38:00.378Z,5940.00
2019-03-29T04:39:00.520Z,5868.00
2019-03-29T04:40:07.547Z,5848.00
2019-03-29T04:41:25.215Z,5820.00
2019-03-29T04:42:25.151Z,5708.00
2019-03-29T04:43:25.136Z,5560.00
2019-03-29T04:44:25.179Z,5424.00
2019-03-29T04:45:25.114Z,5340.00
2019-03-29T04:46:25.117Z,5268.00
2019-03-29T04:47:25.093Z,5212.00
2019-03-29T04:48:25.085Z,5220.00
2019-03-29T04:49:25.081Z,5316.00
2019-03-29T04:50:25.109Z,5476.00
2019-03-29T04:51:25.048Z,5708.00
2019-03-29T04:52:25.037Z,5996.00
2019-03-29T04:53:25.031Z,6332.00
2019-03-29T04:54:25.026Z,6832.00
2019-03-29T04:55:25.012Z,7588.00
2019-03-29T04:56:25.150Z,8492.00
2019-03-29T04:57:25.031Z,8988.00
2019-03-29T04:58:24.977Z,9588.00
2019-03-29T04:59:24.964Z,9824.00
2019-03-29T05:00:24.959Z,10072.00
2019-03-29T05:01:24.947Z,10440.00
2019-03-29T05:02:24.982Z,10964.00
2019-03-29T05:03:24.921Z,11512.00
2019-03-29T05:04:24.919Z,11580.00
2019-03-29T05:05:24.905Z,11620.00
2019-03-29T05:06:24.885Z,11200.00
2019-03-29T05:07:24.883Z,10772.00
2019-03-29T05:08:24.920Z,10796.00
2019-03-29T05:09:24.856Z,11336.00
2019-03-29T05:10:24.844Z,11488.00
2019-03-29T05:11:24.831Z,10884.00
2019-03-29T05:12:24.824Z,10580.00
2019-03-29T05:13:24.817Z,10628.00
2019-03-29T05:14:24.952Z,10612.00
2019-03-29T05:15:24.792Z,10876.00
2019-03-29T05:16:24.785Z,10908.00
2019-03-29T05:17:24.776Z,10956.00
2019-03-29T05:18:24.763Z,10976.00
2019-03-29T05:19:24.751Z,11012.00
2019-03-29T05:20:24.794Z,11000.00
2019-03-29T05:21:24.732Z,11100.00
2019-03-29T05:22:24.725Z,11184.00
2019-03-29T05:23:24.715Z,11148.00
2019-03-29T05:24:24.702Z,11108.00
2019-03-29T05:25:24.693Z,11024.00
2019-03-29T05:26:25.627Z,10936.00
2019-03-29T05:27:24.667Z,10792.00
2019-03-29T05:28:24.660Z,10716.00
2019-03-29T05:29:24.644Z,10696.00
2019-03-29T05:30:24.637Z,10756.00
2019-03-29T05:31:24.629Z,10816.00
2019-03-29T05:32:24.764Z,10996.00
2019-03-29T05:33:24.602Z,11084.00
2019-03-29T05:34:24.602Z,11112.00
2019-03-29T05:35:24.593Z,11488.00
2019-03-29T05:36:24.577Z,11604.00
2019-03-29T05:37:24.568Z,11588.00
2019-03-29T05:38:24.604Z,11380.00
2019-03-29T05:39:24.545Z,11016.00
2019-03-29T05:40:34.819Z,10512.00
2019-03-29T05:41:25.620Z,9992.00
2019-03-29T05:42:24.511Z,9440.00
2019-03-29T05:43:24.503Z,8748.00
2019-03-29T05:44:24.545Z,7968.00
2019-03-29T05:45:24.483Z,7228.00
2019-03-29T05:46:24.472Z,6588.00
2019-03-29T05:47:24.464Z,6008.00
2019-03-29T05:48:24.448Z,5456.00
2019-03-29T05:49:24.445Z,5004.00
2019-03-29T05:50:24.631Z,4668.00
2019-03-29T05:51:24.423Z,4392.00
2019-03-29T05:52:24.456Z,4120.00
2019-03-29T05:53:24.404Z,3836.00
2019-03-29T05:54:24.390Z,3556.00
2019-03-29T05:55:32.502Z,3276.00
2019-03-29T05:56:49.286Z,2924.00
2019-03-29T05:57:49.275Z,2720.00
2019-03-29T05:58:49.266Z,2556.00
2019-03-29T05:59:49.253Z,2456.00
2019-03-29T06:00:49.246Z,2404.00
2019-03-29T06:01:49.330Z,2376.00
2019-03-29T06:02:49.226Z,2356.00
2019-03-29T06:03:49.208Z,2352.00
2019-03-29T06:04:49.197Z,2352.00
2019-03-29T06:05:49.193Z,2368.00
2019-03-29T06:06:49.177Z,2368.00
2019-03-29T06:07:49.327Z,2356.00
2019-03-29T06:08:49.159Z,2356.00
2019-03-29T06:09:49.148Z,2352.00
2019-03-29T06:10:49.793Z,2336.00
2019-03-29T06:11:49.126Z,2264.00
2019-03-29T06:12:49.121Z,2204.00
2019-03-29T06:13:49.207Z,2156.00
2019-03-29T06:14:49.095Z,2156.00
2019-03-29T06:15:49.083Z,2216.00
2019-03-29T06:16:49.068Z,2304.00
2019-03-29T06:17:49.309Z,2412.00
2019-03-29T06:18:49.045Z,2520.00
2019-03-29T06:19:49.144Z,2648.00
2019-03-29T06:20:49.030Z,2832.00
2019-03-29T06:21:49.020Z,3076.00
2019-03-29T06:22:49.007Z,3320.00
2019-03-29T06:23:48.993Z,3524.00
2019-03-29T06:24:48.980Z,3660.00
2019-03-29T06:25:49.124Z,3648.00
2019-03-29T06:26:48.958Z,3612.00
2019-03-29T06:27:48.945Z,3380.00
2019-03-29T06:28:48.938Z,3188.00
2019-03-29T06:29:48.925Z,2972.00
2019-03-29T06:30:48.914Z,2720.00
2019-03-29T06:31:49.002Z,2488.00
2019-03-29T06:32:48.897Z,2280.00
2019-03-29T06:33:48.896Z,2100.00
2019-03-29T06:34:52.927Z,1948.00
2019-03-29T06:35:49.078Z,1832.00
2019-03-29T06:36:51.506Z,1776.00
2019-03-29T06:37:51.949Z,1800.00
2019-03-29T06:38:48.836Z,1916.00
2019-03-29T06:39:48.819Z,2128.00
2019-03-29T06:41:01.808Z,2412.00
2019-03-29T06:42:13.769Z,2852.00
2019-03-29T06:43:13.609Z,3100.00
2019-03-29T06:44:13.597Z,3256.00
2019-03-29T06:45:13.588Z,3364.00
2019-03-29T06:46:13.574Z,3436.00
2019-03-29T06:47:13.563Z,3460.00
2019-03-29T06:48:13.606Z,3428.00
2019-03-29T06:49:13.547Z,3328.00
2019-03-29T06:50:14.269Z,3172.00
2019-03-29T06:51:13.526Z,3012.00
2019-03-29T06:52:13.539Z,2832.00
2019-03-29T06:53:13.503Z,2636.00
2019-03-29T06:54:13.542Z,2428.00
2019-03-29T06:55:13.482Z,2208.00
2019-03-29T06:56:13.470Z,2020.00
2019-03-29T06:57:13.458Z,1872.00
2019-03-29T06:58:13.452Z,1732.00
2019-03-29T06:59:13.437Z,1592.00
2019-03-29T07:00:13.578Z,1436.00
2019-03-29T07:01:13.418Z,1304.00
2019-03-29T07:02:13.407Z,1232.00
2019-03-29T07:03:13.392Z,1224.00
2019-03-29T07:04:13.382Z,1268.00
2019-03-29T07:05:13.398Z,1348.00
2019-03-29T07:06:13.466Z,1448.00
2019-03-29T07:07:13.354Z,1536.00
2019-03-29T07:08:13.342Z,1600.00
2019-03-29T07:09:13.332Z,1620.00
2019-03-29T07:10:13.318Z,1600.00
2019-03-29T07:11:17.618Z,1560.00
2019-03-29T07:12:13.405Z,1512.00
2019-03-29T07:13:13.293Z,1472.00
2019-03-29T07:14:13.284Z,1496.00
2019-03-29T07:15:13.271Z,1652.00
2019-03-29T07:16:13.257Z,1936.00
2019-03-29T07:17:13.244Z,2332.00
2019-03-29T07:18:13.485Z,2788.00
2019-03-29T07:19:38.049Z,3324.00
2019-03-29T07:20:38.032Z,3656.00
2019-03-29T07:21:38.018Z,3812.00
2019-03-29T07:22:38.009Z,3884.00
2019-03-29T07:23:38.048Z,3904.00
2019-03-29T07:24:37.979Z,4028.00
2019-03-29T07:25:37.977Z,4292.00
2019-03-29T07:26:37.961Z,4488.00
2019-03-29T07:27:44.716Z,4492.00
2019-03-29T07:28:39.098Z,4440.00
2019-03-29T07:29:37.946Z,4448.00
2019-03-29T07:30:37.922Z,4432.00
2019-03-29T07:31:37.908Z,4288.00
2019-03-29T07:32:37.894Z,4048.00
2019-03-29T07:33:37.888Z,3760.00
2019-03-29T07:34:37.973Z,3500.00
2019-03-29T07:35:37.862Z,3348.00
2019-03-29T07:36:37.849Z,3340.00
2019-03-29T07:37:37.846Z,3332.00
2019-03-29T07:38:37.833Z,3324.00
2019-03-29T07:39:37.828Z,3288.00
2019-03-29T07:40:37.964Z,3212.00
2019-03-29T07:41:37.814Z,3112.00
2019-03-29T07:42:37.792Z,3052.00
2019-03-29T07:43:37.777Z,3024.00
2019-03-29T07:44:37.767Z,2952.00
2019-03-29T07:45:37.754Z,2800.00
2019-03-29T07:46:37.797Z,2700.00
2019-03-29T07:47:37.735Z,2668.00
2019-03-29T07:48:40.413Z,2680.00
2019-03-29T07:49:37.709Z,2724.00
2019-03-29T07:50:37.697Z,2800.00
2019-03-29T07:51:37.686Z,2904.00
2019-03-29T07:52:37.733Z,2964.00
2019-03-29T07:53:37.671Z,2948.00
2019-03-29T07:54:37.660Z,2900.00
2019-03-29T07:55:37.734Z,2844.00
2019-03-29T07:56:37.634Z,2800.00
2019-03-29T07:57:37.630Z,2724.00
2019-03-29T07:58:37.766Z,2580.00
2019-03-29T07:59:37.605Z,2376.00
2019-03-29T08:00:37.589Z,2224.00
2019-03-29T08:01:37.598Z,2132.00
2019-03-29T08:02:37.571Z,2108.00
2019-03-29T08:03:37.563Z,2124.00
2019-03-29T08:04:37.602Z,2168.00
2019-03-29T08:05:37.535Z,2232.00
2019-03-29T08:06:38.362Z,2280.00
2019-03-29T08:07:37.523Z,2364.00
2019-03-29T08:08:37.511Z,2484.00
2019-03-29T08:10:37.533Z,2516.00
2019-03-29T08:11:46.078Z,2520.00
2019-03-29T08:13:02.279Z,2916.00
2019-03-29T08:14:02.274Z,3232.00
2019-03-29T08:15:02.255Z,3416.00
2019-03-29T08:16:02.349Z,3440.00
2019-03-29T08:17:02.234Z,3460.00
2019-03-29T08:18:02.229Z,3484.00
2019-03-29T08:19:02.235Z,3384.00
2019-03-29T08:20:36.548Z,3248.00
2019-03-29T08:21:03.345Z,3172.00
2019-03-29T08:22:02.183Z,3188.00
2019-03-29T08:23:02.181Z,3208.00
2019-03-29T08:24:02.165Z,3228.00
2019-03-29T08:25:02.154Z,3156.00
2019-03-29T08:26:02.140Z,3004.00
2019-03-29T08:27:02.232Z,2836.00
2019-03-29T08:28:02.117Z,2744.00
2019-03-29T08:29:02.107Z,2788.00
2019-03-29T08:30:02.100Z,2904.00
2019-03-29T08:31:02.086Z,3056.00
2019-03-29T08:32:02.084Z,3312.00
2019-03-29T08:33:02.118Z,3616.00
2019-03-29T08:34:02.063Z,3848.00
2019-03-29T08:35:02.045Z,3968.00
2019-03-29T08:36:02.040Z,3992.00
2019-03-29T08:37:02.021Z,3900.00
2019-03-29T08:38:02.011Z,3796.00
2019-03-29T08:39:02.048Z,3696.00
2019-03-29T08:40:01.994Z,3544.00
2019-03-29T08:41:01.979Z,3352.00
2019-03-29T08:42:01.968Z,3124.00
2019-03-29T08:43:01.959Z,2892.00
2019-03-29T08:44:01.974Z,2676.00
2019-03-29T08:45:01.991Z,2524.00
2019-03-29T08:46:01.932Z,2392.00
2019-03-29T08:47:01.921Z,2256.00
2019-03-29T08:48:02.381Z,2136.00
2019-03-29T08:49:01.898Z,2036.00
2019-03-29T08:50:01.889Z,1968.00
2019-03-29T08:51:01.925Z,1928.00
2019-03-29T08:52:01.864Z,1892.00
2019-03-29T08:53:01.850Z,1836.00
2019-03-29T08:54:01.849Z,1764.00
2019-03-29T08:55:01.837Z,1704.00
2019-03-29T08:56:01.821Z,1652.00
2019-03-29T08:57:01.912Z,1624.00
2019-03-29T08:58:01.801Z,1616.00
2019-03-29T08:59:01.787Z,1628.00
2019-03-29T09:00:01.776Z,1656.00
2019-03-29T09:01:01.767Z,1720.00
2019-03-29T09:02:01.760Z,1796.00
2019-03-29T09:03:01.795Z,1868.00
2019-03-29T09:04:05.634Z,1908.00
2019-03-29T09:05:01.722Z,1916.00
2019-03-29T09:06:01.713Z,1908.00
2019-03-29T09:07:01.702Z,1884.00
2019-03-29T09:08:01.693Z,1864.00
2019-03-29T09:09:01.730Z,1848.00
2019-03-29T09:10:01.674Z,1816.00
2019-03-29T09:11:01.664Z,1740.00
2019-03-29T09:12:13.714Z,1636.00
2019-03-29T09:13:26.454Z,1512.00
2019-03-29T09:14:26.493Z,1452.00
2019-03-29T09:15:26.438Z,1400.00
2019-03-29T09:16:26.423Z,1352.00
2019-03-29T09:17:26.410Z,1296.00
2019-03-29T09:18:26.452Z,1256.00
2019-03-29T09:19:26.389Z,1216.00
2019-03-29T09:20:26.427Z,1172.00
2019-03-29T09:21:26.368Z,1128.00
2019-03-29T09:22:26.353Z,1108.00
2019-03-29T09:23:29.817Z,1120.00
2019-03-29T09:24:26.375Z,1160.00
2019-03-29T09:25:26.328Z,1220.00
2019-03-29T09:26:26.417Z,1284.00
2019-03-29T09:27:26.303Z,1348.00
2019-03-29T09:28:26.293Z,1432.00
2019-03-29T09:29:26.285Z,1552.00
2019-03-29T09:30:26.268Z,1720.00
2019-03-29T09:31:26.257Z,1940.00
2019-03-29T09:32:26.298Z,2208.00
2019-03-29T09:33:26.248Z,2508.00
2019-03-29T09:34:28.868Z,2820.00
2019-03-29T09:35:26.218Z,3108.00
2019-03-29T09:36:26.204Z,3352.00
2019-03-29T09:37:26.189Z,3488.00
2019-03-29T09:38:26.230Z,3508.00
2019-03-29T09:39:26.170Z,3468.00
2019-03-29T09:40:26.164Z,3420.00
2019-03-29T09:41:26.150Z,3396.00
2019-03-29T09:42:29.652Z,3436.00
2019-03-29T09:43:26.732Z,3504.00
2019-03-29T09:44:26.165Z,3560.00
2019-03-29T09:45:26.110Z,3620.00
2019-03-29T09:46:26.093Z,3616.00
2019-03-29T09:47:26.089Z,3496.00
2019-03-29T09:48:26.070Z,3248.00
2019-03-29T09:49:26.060Z,2832.00
2019-03-29T09:50:26.149Z,2336.00
2019-03-29T09:51:26.081Z,1932.00
2019-03-29T09:52:26.031Z,1644.00
2019-03-29T09:53:26.019Z,1464.00
2019-03-29T09:54:26.006Z,1388.00
2019-03-29T09:55:25.995Z,1420.00
2019-03-29T09:56:38.067Z,1544.00
2019-03-29T09:57:50.789Z,1832.00
2019-03-29T09:58:50.775Z,2128.00
2019-03-29T09:59:50.848Z,2496.00
2019-03-29T10:00:50.758Z,2896.00
2019-03-29T10:01:53.868Z,3264.00
2019-03-29T10:02:50.762Z,3516.00
2019-03-29T10:03:50.727Z,3660.00
2019-03-29T10:04:50.713Z,3748.00
2019-03-29T10:05:50.707Z,3792.00
2019-03-29T10:06:50.694Z,3768.00
2019-03-29T10:07:50.781Z,3724.00
2019-03-29T10:08:53.274Z,3632.00
2019-03-29T10:09:50.670Z,3444.00
2019-03-29T10:10:50.649Z,3184.00
2019-03-29T10:11:50.641Z,2968.00
2019-03-29T10:12:50.647Z,2804.00
2019-03-29T10:13:50.671Z,2652.00
2019-03-29T10:14:50.611Z,2472.00
2019-03-29T10:15:51.476Z,2300.00
2019-03-29T10:16:50.589Z,2160.00
2019-03-29T10:17:50.580Z,2116.00
2019-03-29T10:18:50.569Z,2156.00
2019-03-29T10:19:50.667Z,2272.00
2019-03-29T10:20:50.546Z,2456.00
2019-03-29T10:21:50.537Z,2732.00
2019-03-29T10:22:50.536Z,3164.00
2019-03-29T10:23:50.520Z,3600.00
2019-03-29T10:24:50.510Z,3776.00
2019-03-29T10:25:50.597Z,3488.00
2019-03-29T10:26:50.484Z,3032.00
2019-03-29T10:27:50.474Z,2728.00
2019-03-29T10:28:50.463Z,2568.00
2019-03-29T10:29:50.453Z,2468.00
2019-03-29T10:30:50.446Z,2404.00
2019-03-29T10:31:50.545Z,2380.00
2019-03-29T10:32:50.417Z,2376.00
2019-03-29T10:33:50.412Z,2380.00
2019-03-29T10:34:50.402Z,2388.00
2019-03-29T10:35:52.514Z,2368.00
2019-03-29T10:36:50.378Z,2320.00
2019-03-29T10:37:50.419Z,2248.00
2019-03-29T10:38:50.363Z,2164.00
2019-03-29T10:39:50.346Z,2068.00
2019-03-29T10:40:50.333Z,1952.00
2019-03-29T10:41:50.325Z,1832.00
2019-03-29T10:42:57.564Z,1724.00
2019-03-29T10:51:50.216Z,1012.00
2019-03-29T10:52:50.379Z,920.00
2019-03-29T10:53:50.199Z,820.00
2019-03-29T10:54:50.233Z,728.00
2019-03-29T10:55:50.229Z,636.00
2019-03-29T10:56:50.167Z,576.00
2019-03-29T10:57:50.156Z,556.00
2019-03-29T10:58:50.145Z,572.00
2019-03-29T10:59:50.139Z,604.00
2019-03-29T11:00:50.126Z,636.00
2019-03-29T11:01:50.212Z,660.00
2019-03-29T11:02:50.102Z,680.00
2019-03-29T11:03:50.099Z,692.00
2019-03-29T11:04:50.081Z,720.00
2019-03-29T11:05:50.074Z,756.00
2019-03-29T11:06:50.061Z,792.00
2019-03-29T11:07:50.106Z,828.00
2019-03-29T11:08:50.035Z,860.00
2019-03-29T11:09:50.027Z,872.00
2019-03-29T11:10:50.015Z,864.00
2019-03-29T11:11:50.001Z,864.00
2019-03-29T11:12:49.997Z,884.00
2019-03-29T11:13:50.087Z,904.00
2019-03-29T11:14:49.982Z,912.00
2019-03-29T11:15:49.963Z,904.00
2019-03-29T11:16:49.957Z,896.00
2019-03-29T11:17:49.944Z,880.00
2019-03-29T11:18:49.932Z,860.00
2019-03-29T11:19:49.971Z,856.00
2019-03-29T11:20:49.913Z,880.00
2019-03-29T11:21:49.899Z,920.00
2019-03-29T11:22:49.895Z,968.00
2019-03-29T11:23:49.881Z,988.00
2019-03-29T11:24:49.865Z,972.00
2019-03-29T11:25:49.907Z,932.00
2019-03-29T11:26:49.847Z,916.00
2019-03-29T11:27:49.836Z,912.00
2019-03-29T11:28:49.822Z,920.00
2019-03-29T11:29:49.818Z,912.00
2019-03-29T11:30:49.801Z,896.00
2019-03-29T11:31:49.839Z,888.00
2019-03-29T11:32:49.781Z,904.00
2019-03-29T11:33:49.771Z,932.00
2019-03-29T11:34:49.756Z,964.00
2019-03-29T11:35:49.749Z,992.00
2019-03-29T11:36:52.425Z,1004.00
2019-03-29T11:37:49.828Z,996.00
2019-03-29T11:38:49.720Z,964.00
2019-03-29T11:39:49.709Z,936.00
2019-03-29T11:40:49.694Z,956.00
2019-03-29T11:41:49.685Z,1020.00
2019-03-29T11:42:49.673Z,1104.00
2019-03-29T11:43:49.709Z,1136.00
2019-03-29T11:44:49.655Z,1092.00
2019-03-29T11:45:49.645Z,968.00
2019-03-29T11:46:49.634Z,812.00
2019-03-29T11:47:49.622Z,692.00
2019-03-29T11:48:49.610Z,620.00
2019-03-29T11:49:52.805Z,584.00
2019-03-29T11:50:49.589Z,612.00
2019-03-29T11:51:49.576Z,672.00
2019-03-29T11:52:49.568Z,744.00
2019-03-29T11:53:51.089Z,848.00
2019-03-29T11:54:49.549Z,944.00
2019-03-29T11:55:49.641Z,988.00
2019-03-29T11:56:49.529Z,988.00
2019-03-29T11:57:49.516Z,996.00
2019-03-29T11:58:49.502Z,1020.00
2019-03-29T11:59:49.498Z,1048.00
2019-03-29T12:00:49.485Z,1104.00
2019-03-29T12:01:49.523Z,1196.00
2019-03-29T12:02:49.467Z,1320.00
2019-03-29T12:03:49.454Z,1468.00
2019-03-29T12:04:49.441Z,1612.00
2019-03-29T12:05:49.432Z,1732.00
2019-03-29T12:06:49.425Z,1828.00
2019-03-29T12:07:49.518Z,1948.00
2019-03-29T12:08:49.403Z,2132.00
2019-03-29T12:09:49.393Z,2372.00
2019-03-29T12:10:49.381Z,2632.00
2019-03-29T12:11:49.441Z,2808.00
2019-03-29T12:12:49.362Z,2912.00
2019-03-29T12:13:49.400Z,2960.00
2019-03-29T12:14:49.336Z,2876.00
2019-03-29T12:15:49.331Z,2812.00
2019-03-29T12:16:49.318Z,2796.00
2019-03-29T12:17:49.307Z,2804.00
2019-03-29T12:18:49.293Z,2812.00
2019-03-29T12:19:49.337Z,2800.00
2019-03-29T12:20:49.272Z,2784.00
2019-03-29T12:21:49.262Z,2788.00
2019-03-29T12:22:49.256Z,2784.00
2019-03-29T12:23:49.236Z,2760.00
2019-03-29T12:24:49.234Z,2708.00
2019-03-29T12:25:49.275Z,2588.00
2019-03-29T12:26:49.210Z,2424.00
2019-03-29T12:27:49.201Z,2256.00
2019-03-29T12:28:49.190Z,2116.00
2019-03-29T12:29:49.181Z,2020.00
2019-03-29T12:30:49.165Z,1956.00
2019-03-29T12:31:49.204Z,1924.00
2019-03-29T12:32:49.149Z,1912.00
2019-03-29T12:33:49.131Z,1908.00
2019-03-29T12:34:49.120Z,1908.00
2019-03-29T12:35:49.116Z,1904.00
2019-03-29T12:36:49.110Z,1896.00
2019-03-29T12:37:49.148Z,1876.00
2019-03-29T12:38:49.091Z,1848.00
2019-03-29T12:39:49.072Z,1812.00
2019-03-29T12:40:49.057Z,1772.00
2019-03-29T12:41:49.047Z,1732.00
2019-03-29T12:42:49.041Z,1692.00
2019-03-29T12:43:55.315Z,1656.00
2019-03-29T12:45:13.830Z,1608.00